Time;durP1;ratioP1;P1;durP2;ratioP2;P2;SDS_P1;SDS_P2;PMS_P1;PMS_P2;Temp;Humidity;BMP_temperature;BMP_pressure;BME280_temperature;BME280_humidity;BME280_pressure;Samples;Min_cycle;Max_cycle;Signal;HPM_P1;HPM_P2
2022/11/30 00:01:23;;;;;;;71.28;35.95;;;;;;;6.97;100.00;102053.91;5031134;28;20116;-70
2022/11/30 00:03:52;;;;;;;75.25;35.15;;;;;;;6.97;100.00;102060.13;5033710;28;20051;-70
2022/11/30 00:06:21;;;;;;;70.20;35.35;;;;;;;6.95;100.00;102055.94;5031870;28;20384;-70
2022/11/30 00:08:47;;;;;;;70.90;36.08;;;;;;;6.94;100.00;102059.66;5019094;28;20042;-70
2022/11/30 00:11:16;;;;;;;65.65;33.95;;;;;;;6.96;100.00;102065.69;5031740;28;20106;-70
2022/11/30 00:13:41;;;;;;;68.28;35.92;;;;;;;6.97;100.00;102064.69;5033559;28;20449;-70
2022/11/30 00:16:07;;;;;;;66.68;34.72;;;;;;;6.94;100.00;102062.34;5032090;28;20029;-70
2022/11/30 00:18:33;;;;;;;71.90;36.42;;;;;;;6.93;100.00;102066.88;5033436;28;20068;-70
2022/11/30 00:21:02;;;;;;;71.28;35.65;;;;;;;6.92;100.00;102065.19;5033366;28;20484;-70
2022/11/30 00:23:36;;;;;;;71.45;36.85;;;;;;;6.95;100.00;102072.09;5033326;28;20112;-70
2022/11/30 00:26:02;;;;;;;75.70;36.33;;;;;;;6.94;100.00;102070.41;5032467;28;20033;-70
2022/11/30 00:28:29;;;;;;;71.57;35.40;;;;;;;6.95;100.00;102066.72;5030738;28;20048;-70
2022/11/30 00:30:59;;;;;;;73.47;35.83;;;;;;;6.96;100.00;102060.31;5032484;28;20083;-70
2022/11/30 00:33:24;;;;;;;73.82;37.30;;;;;;;6.95;100.00;102054.09;5032897;28;20552;-70
2022/11/30 00:36:01;;;;;;;76.75;36.92;;;;;;;6.96;100.00;102061.16;5033057;28;20104;-70
2022/11/30 00:38:27;;;;;;;78.07;37.05;;;;;;;6.94;100.00;102065.84;5016767;28;20026;-70
2022/11/30 00:40:52;;;;;;;74.28;36.72;;;;;;;6.92;100.00;102062.50;5033103;28;20030;-70
2022/11/30 00:43:18;;;;;;;77.07;36.83;;;;;;;6.92;100.00;102071.41;5032783;28;20050;-70
2022/11/30 00:45:43;;;;;;;85.50;36.83;;;;;;;6.92;100.00;102068.72;5032982;28;20037;-70
2022/11/30 00:48:08;;;;;;;76.18;36.40;;;;;;;6.92;100.00;102074.09;5031166;28;20040;-70
2022/11/30 00:50:34;;;;;;;76.20;36.85;;;;;;;6.96;100.00;102077.31;5032899;28;20033;-70
2022/11/30 00:52:59;;;;;;;80.65;36.40;;;;;;;6.96;100.00;102073.75;5032331;28;20037;-70
2022/11/30 00:55:25;;;;;;;72.65;36.83;;;;;;;6.97;100.00;102078.13;5031250;28;20037;-70
2022/11/30 00:57:50;;;;;;;76.05;35.47;;;;;;;6.98;100.00;102072.59;5025639;28;20033;-70
2022/11/30 01:00:15;;;;;;;66.95;35.10;;;;;;;6.98;100.00;102071.75;5013054;28;20456;-70
2022/11/30 01:02:41;;;;;;;69.05;35.90;;;;;;;6.99;100.00;102070.72;5010845;28;20029;-70
2022/11/30 01:05:06;;;;;;;70.95;35.20;;;;;;;7.01;100.00;102072.25;5012394;28;20026;-70
2022/11/30 01:07:32;;;;;;;69.38;33.45;;;;;;;7.02;100.00;102079.31;5029978;28;20033;-70
2022/11/30 01:09:57;;;;;;;69.22;33.40;;;;;;;7.03;100.00;102075.59;5032671;28;20104;-70
2022/11/30 01:12:22;;;;;;;64.93;34.13;;;;;;;7.04;100.00;102079.16;5032071;28;20037;-70
2022/11/30 01:14:48;;;;;;;67.03;33.47;;;;;;;7.06;100.00;102079.81;5032549;28;20479;-70
2022/11/30 01:17:13;;;;;;;62.45;31.90;;;;;;;7.07;100.00;102087.69;5020496;28;20041;-70
2022/11/30 01:19:38;;;;;;;61.78;31.67;;;;;;;7.10;100.00;102070.38;5012748;28;20076;-70
2022/11/30 01:22:03;;;;;;;57.38;31.88;;;;;;;7.10;100.00;102078.44;5013091;28;20038;-70
2022/11/30 01:24:29;;;;;;;57.35;31.10;;;;;;;7.13;100.00;102080.81;5012563;28;20026;-70
2022/11/30 01:26:54;;;;;;;62.35;32.20;;;;;;;7.13;100.00;102075.41;5015188;28;20045;-70
2022/11/30 01:29:19;;;;;;;54.13;28.25;;;;;;;7.13;100.00;102080.81;5030688;28;20124;-70
2022/11/30 01:31:44;;;;;;;55.88;29.48;;;;;;;7.12;100.00;102078.28;5032386;28;20033;-70
2022/11/30 01:34:10;;;;;;;54.88;28.48;;;;;;;7.12;100.00;102084.50;5032197;28;20034;-70
2022/11/30 01:36:37;;;;;;;56.22;29.05;;;;;;;7.15;100.00;102083.31;5030838;28;20522;-70
2022/11/30 01:39:07;;;;;;;55.25;28.73;;;;;;;7.14;100.00;102082.50;5034341;28;20029;-70
2022/11/30 01:41:33;;;;;;;51.53;27.73;;;;;;;7.13;100.00;102078.09;5036602;28;20037;-70
2022/11/30 01:44:04;;;;;;;55.47;29.65;;;;;;;7.13;100.00;102079.97;5036284;28;20033;-70
2022/11/30 01:46:47;;;;;;;53.90;28.92;;;;;;;7.12;100.00;102079.09;5035211;28;20357;-70
2022/11/30 01:49:20;;;;;;;51.20;28.38;;;;;;;7.07;100.00;102076.94;5035897;28;20049;-70
2022/11/30 01:51:52;;;;;;;55.67;30.20;;;;;;;7.08;100.00;102072.38;5036200;28;20029;-70
2022/11/30 01:54:23;;;;;;;53.97;29.25;;;;;;;7.07;100.00;102087.69;5036037;28;20502;-70
2022/11/30 01:56:53;;;;;;;50.40;27.07;;;;;;;7.08;100.00;102093.91;5035263;28;20029;-70
2022/11/30 01:59:21;;;;;;;53.08;27.67;;;;;;;7.06;100.00;102093.25;5031486;28;20306;-70
2022/11/30 02:01:46;;;;;;;52.38;27.85;;;;;;;7.07;100.00;102097.63;5027468;28;20037;-70
2022/11/30 02:04:21;;;;;;;51.78;27.30;;;;;;;7.11;100.00;102099.00;5035317;28;20523;-70
2022/11/30 02:06:48;;;;;;;52.80;27.50;;;;;;;7.12;100.00;102105.19;5035922;28;20033;-70
2022/11/30 02:09:15;;;;;;;44.15;27.10;;;;;;;7.13;100.00;102102.34;5035713;28;20037;-70
2022/11/30 02:11:40;;;;;;;44.90;26.13;;;;;;;7.10;100.00;102095.44;5021618;28;20050;-70
2022/11/30 02:14:29;;;;;;;49.83;26.08;;;;;;;7.16;100.00;102102.00;5016222;28;20036;-70
2022/11/30 02:17:14;;;;;;;49.38;25.48;;;;;;;7.16;100.00;102099.31;5024040;28;20035;-70
2022/11/30 02:20:17;;;;;;;48.30;25.70;;;;;;;7.20;100.00;102105.16;5031459;28;20037;-70
2022/11/30 02:23:08;;;;;;;43.95;23.02;;;;;;;7.19;100.00;102098.97;5035573;28;20033;-70
2022/11/30 02:26:17;;;;;;;42.08;23.40;;;;;;;7.22;100.00;102098.59;5035433;28;20029;-70
2022/11/30 02:29:05;;;;;;;42.33;23.63;;;;;;;7.21;100.00;102096.91;5035527;28;20083;-70
2022/11/30 02:31:39;;;;;;;37.53;23.08;;;;;;;7.22;100.00;102093.22;5034463;28;20030;-70
2022/11/30 02:34:07;;;;;;;39.55;23.20;;;;;;;7.22;100.00;102095.91;5034490;28;20076;-70
2022/11/30 02:36:33;;;;;;;39.13;23.27;;;;;;;7.22;100.00;102098.59;5034220;28;20037;-70
2022/11/30 02:38:58;;;;;;;35.70;20.90;;;;;;;7.25;100.00;102098.25;5035291;28;20029;-70
2022/11/30 02:41:24;;;;;;;37.65;22.23;;;;;;;7.25;100.00;102094.75;5034011;28;20045;-70
2022/11/30 02:43:49;;;;;;;36.58;21.25;;;;;;;7.27;100.00;102103.47;5020170;28;20030;-70
2022/11/30 02:46:19;;;;;;;39.70;23.48;;;;;;;7.26;100.00;102099.09;5015055;28;20080;-70
2022/11/30 02:48:50;;;;;;;34.00;21.10;;;;;;;7.26;100.00;102105.34;5015334;28;20045;-70
2022/11/30 02:51:21;;;;;;;33.70;21.48;;;;;;;7.23;100.00;102111.06;5023094;28;20080;-70
2022/11/30 02:53:47;;;;;;;33.08;19.98;;;;;;;7.19;100.00;102119.66;5035322;28;20436;-70
2022/11/30 02:56:12;;;;;;;35.15;20.00;;;;;;;7.20;100.00;102107.88;5033630;28;20021;-70
2022/11/30 02:58:38;;;;;;;33.38;20.67;;;;;;;7.23;100.00;102110.22;5034983;28;20120;-70
2022/11/30 03:01:04;;;;;;;29.88;20.40;;;;;;;7.24;100.00;102106.50;5031937;28;20033;-70
2022/11/30 03:03:29;;;;;;;31.90;20.08;;;;;;;7.25;100.00;102117.13;5035076;28;20176;-71
2022/11/30 03:05:54;;;;;;;33.75;21.15;;;;;;;7.25;100.00;102111.72;5034520;28;20033;-70
2022/11/30 03:08:19;;;;;;;29.48;19.30;;;;;;;7.26;100.00;102112.56;5034614;28;20029;-70
2022/11/30 03:10:45;;;;;;;32.92;19.63;;;;;;;7.24;100.00;102118.13;5029879;28;20026;-70
2022/11/30 03:13:10;;;;;;;31.75;20.00;;;;;;;7.22;100.00;102108.56;5014934;28;20104;-70
2022/11/30 03:15:35;;;;;;;34.88;20.35;;;;;;;7.20;100.00;102107.88;5046417;28;20037;-70
2022/11/30 03:18:02;;;;;;;32.42;20.33;;;;;;;7.23;100.00;102115.59;5026717;28;20076;-70
2022/11/30 03:20:27;;;;;;;32.08;20.52;;;;;;;7.22;100.00;102114.75;5031848;28;20151;-70
2022/11/30 03:22:52;;;;;;;32.30;20.33;;;;;;;7.23;100.00;102120.97;5014703;28;20033;-70
2022/11/30 03:25:18;;;;;;;32.28;20.35;;;;;;;7.23;100.00;102112.91;5014453;28;20034;-70
2022/11/30 03:27:43;;;;;;;31.88;20.20;;;;;;;7.23;100.00;102111.06;5014620;28;20029;-70
2022/11/30 03:30:09;;;;;;;34.97;20.33;;;;;;;7.22;100.00;102112.06;5014580;28;20053;-70
2022/11/30 03:32:34;;;;;;;31.70;19.48;;;;;;;7.19;100.00;102112.41;5032425;28;20045;-70
2022/11/30 03:34:59;;;;;;;31.48;20.70;;;;;;;7.19;100.00;102109.72;5034317;28;20036;-70
2022/11/30 03:37:24;;;;;;;27.27;18.73;;;;;;;7.20;100.00;102111.41;5033930;28;20527;-70
2022/11/30 03:39:50;;;;;;;29.88;19.95;;;;;;;7.20;100.00;102114.09;5033659;28;20033;-70
2022/11/30 03:42:15;;;;;;;31.92;18.52;;;;;;;7.16;100.00;102112.75;5030703;28;20546;-70
2022/11/30 03:44:40;;;;;;;31.38;19.90;;;;;;;7.18;100.00;102110.72;5034134;28;20025;-70
2022/11/30 03:47:06;;;;;;;26.67;18.95;;;;;;;7.20;100.00;102113.25;5033719;28;20036;-70
2022/11/30 03:49:31;;;;;;;29.67;18.65;;;;;;;7.17;100.00;102109.06;5033733;28;20090;-70
2022/11/30 03:51:56;;;;;;;27.85;18.58;;;;;;;7.18;100.00;102105.34;5032020;28;20478;-70
2022/11/30 03:54:21;;;;;;;29.30;19.45;;;;;;;7.14;100.00;102114.78;5033766;28;20031;-70
2022/11/30 03:56:47;;;;;;;27.38;17.77;;;;;;;7.13;100.00;102123.03;5033792;28;20457;-70
2022/11/30 03:59:12;;;;;;;27.38;17.92;;;;;;;7.14;100.00;102125.56;5034096;28;20115;-70
2022/11/30 04:01:39;;;;;;;27.60;18.55;;;;;;;7.16;100.00;102118.16;5029774;28;20120;-70
2022/11/30 04:04:05;;;;;;;28.33;18.05;;;;;;;7.17;100.00;102118.97;5032040;28;20037;-70
2022/11/30 04:06:30;;;;;;;29.55;18.10;;;;;;;7.22;100.00;102112.06;5033471;28;20033;-70
2022/11/30 04:08:55;;;;;;;25.67;17.65;;;;;;;7.23;100.00;102119.16;5033625;28;20049;-71
2022/11/30 04:11:21;;;;;;;28.45;18.33;;;;;;;7.25;100.00;102113.59;5032534;28;20053;-70
2022/11/30 04:13:46;;;;;;;24.15;16.85;;;;;;;7.26;100.00;102112.56;5033555;28;20372;-70
2022/11/30 04:16:11;;;;;;;28.42;18.00;;;;;;;7.24;100.00;102118.13;5033459;28;20032;-70
2022/11/30 04:18:37;;;;;;;29.25;18.23;;;;;;;7.21;100.00;102120.31;5033275;28;20030;-70
2022/11/30 04:21:04;;;;;;;29.42;18.65;;;;;;;7.16;100.00;102115.44;5028087;28;20033;-70
2022/11/30 04:23:33;;;;;;;29.25;18.00;;;;;;;7.10;100.00;102125.03;5044876;28;20096;-70
2022/11/30 04:25:59;;;;;;;28.70;18.52;;;;;;;7.05;100.00;102122.03;5023010;28;20045;-70
2022/11/30 04:28:24;;;;;;;27.00;18.70;;;;;;;7.07;100.00;102116.47;5033208;28;20042;-70
2022/11/30 04:30:49;;;;;;;29.67;18.92;;;;;;;7.07;100.00;102127.25;5032253;28;20084;-70
2022/11/30 04:33:15;;;;;;;28.20;17.70;;;;;;;7.05;100.00;102123.88;5033176;28;20021;-70
2022/11/30 04:35:56;;;;;;;26.27;17.73;;;;;;;7.05;100.00;102123.88;5032916;28;20034;-70
2022/11/30 04:38:22;;;;;;;27.13;18.13;;;;;;;7.00;100.00;102127.06;5032254;28;20033;-70
2022/11/30 04:40:47;;;;;;;27.83;17.95;;;;;;;6.97;100.00;102118.50;5032252;28;20029;-70
2022/11/30 04:43:13;;;;;;;30.23;18.35;;;;;;;6.96;100.00;102130.28;5033328;28;20052;-70
2022/11/30 04:45:39;;;;;;;29.08;19.10;;;;;;;6.93;100.00;102120.72;5032791;28;20362;-70
2022/11/30 04:48:06;;;;;;;32.75;19.63;;;;;;;6.90;100.00;102129.13;5031290;28;20090;-70
2022/11/30 04:50:31;;;;;;;38.60;19.40;;;;;;;6.89;100.00;102124.75;5032306;28;20471;-70
2022/11/30 04:52:56;;;;;;;29.95;18.73;;;;;;;6.88;100.00;102126.59;5013124;28;20168;-71
2022/11/30 04:55:22;;;;;;;31.60;18.70;;;;;;;6.86;100.00;102130.47;5013156;28;20377;-70
2022/11/30 04:57:48;;;;;;;33.53;19.08;;;;;;;6.83;100.00;102130.81;5013373;28;20091;-70
2022/11/30 05:00:15;;;;;;;29.42;18.55;;;;;;;6.86;100.00;102131.28;5013204;28;20033;-70
2022/11/30 05:02:41;;;;;;;31.30;19.52;;;;;;;6.87;100.00;102124.91;5010348;28;20536;-70
2022/11/30 05:05:07;;;;;;;32.83;19.08;;;;;;;6.85;100.00;102126.91;5025239;28;20068;-70
2022/11/30 05:07:32;;;;;;;30.05;18.85;;;;;;;6.88;100.00;102131.13;5032761;28;20473;-70
2022/11/30 05:09:57;;;;;;;28.83;17.90;;;;;;;6.88;100.00;102128.44;5032704;28;20037;-70
2022/11/30 05:12:23;;;;;;;29.13;19.02;;;;;;;6.86;100.00;102128.59;5032098;28;20484;-70
2022/11/30 05:14:48;;;;;;;30.55;19.00;;;;;;;6.85;100.00;102126.91;5022190;28;20037;-71
2022/11/30 05:17:13;;;;;;;28.92;18.48;;;;;;;6.80;100.00;102131.97;5012801;28;20034;-70
2022/11/30 05:19:39;;;;;;;26.85;18.13;;;;;;;6.80;100.00;102134.66;5012545;28;20034;-70
2022/11/30 05:22:05;;;;;;;28.95;19.20;;;;;;;6.78;100.00;102134.00;5012708;28;20029;-70
2022/11/30 05:24:30;;;;;;;27.33;18.00;;;;;;;6.80;100.00;102131.97;5019770;28;20551;-70
2022/11/30 05:26:55;;;;;;;28.45;19.00;;;;;;;6.81;100.00;102130.97;5032522;28;20053;-70
2022/11/30 05:29:20;;;;;;;27.50;17.35;;;;;;;6.82;100.00;102138.00;5032483;28;20032;-70
2022/11/30 05:31:46;;;;;;;29.88;18.58;;;;;;;6.83;100.00;102134.31;5032213;28;20461;-70
2022/11/30 05:34:11;;;;;;;25.77;17.58;;;;;;;6.85;100.00;102136.84;5031679;28;20061;-70
2022/11/30 05:36:36;;;;;;;25.23;17.55;;;;;;;6.85;100.00;102139.53;5032108;28;20060;-70
2022/11/30 05:39:02;;;;;;;23.05;16.70;;;;;;;6.84;100.00;102144.09;5032391;28;20104;-70
2022/11/30 05:41:27;;;;;;;25.65;16.92;;;;;;;6.84;100.00;102144.09;5032149;28;20040;-70
2022/11/30 05:43:52;;;;;;;30.20;17.92;;;;;;;6.84;100.00;102144.09;5031528;28;20112;-70
2022/11/30 05:46:18;;;;;;;25.75;17.52;;;;;;;6.82;100.00;102146.09;5015617;28;20141;-70
2022/11/30 05:48:43;;;;;;;30.45;17.63;;;;;;;6.83;100.00;102150.47;5012320;28;20030;-70
2022/11/30 05:51:16;;;;;;;27.45;17.33;;;;;;;6.82;100.00;102154.16;5012592;28;20044;-70
2022/11/30 05:53:43;;;;;;;28.60;17.50;;;;;;;6.79;100.00;102164.44;5012319;28;20101;-70
2022/11/30 05:56:11;;;;;;;29.77;19.02;;;;;;;6.76;100.00;102157.53;5021604;28;20061;-70
2022/11/30 05:58:37;;;;;;;28.27;18.25;;;;;;;6.76;100.00;102149.44;5031703;28;20396;-70
2022/11/30 06:01:02;;;;;;;25.08;17.63;;;;;;;6.77;100.00;102156.53;5029808;28;20029;-70
2022/11/30 06:03:29;;;;;;;26.20;17.85;;;;;;;6.76;100.00;102157.53;5031405;28;20439;-70
2022/11/30 06:05:55;;;;;;;26.92;17.75;;;;;;;6.77;100.00;102166.44;5031327;28;20042;-70
2022/11/30 06:08:20;;;;;;;28.40;18.05;;;;;;;6.77;100.00;102172.66;5030227;28;20468;-70
2022/11/30 06:10:45;;;;;;;25.70;18.08;;;;;;;6.74;100.00;102173.00;5030595;28;20037;-70
2022/11/30 06:13:11;;;;;;;27.30;18.70;;;;;;;6.77;100.00;102164.59;5032147;28;20453;-70
2022/11/30 06:15:37;;;;;;;29.45;18.50;;;;;;;6.80;100.00;102166.94;5030919;28;20034;-70
2022/11/30 06:18:03;;;;;;;27.58;17.95;;;;;;;6.78;100.00;102165.41;5032028;28;20116;-70
2022/11/30 06:20:28;;;;;;;26.90;18.02;;;;;;;6.78;100.00;102168.13;5031812;28;20109;-70
2022/11/30 06:22:53;;;;;;;28.75;18.35;;;;;;;6.76;100.00;102165.59;5027140;28;20041;-70
2022/11/30 06:25:19;;;;;;;29.95;17.63;;;;;;;6.73;100.00;102161.41;5026104;28;20029;-70
2022/11/30 06:27:44;;;;;;;26.65;17.92;;;;;;;6.74;100.00;102162.22;5035284;28;20033;-70
2022/11/30 06:30:10;;;;;;;25.27;17.60;;;;;;;6.74;100.00;102168.44;5034839;28;20022;-70
2022/11/30 06:32:35;;;;;;;27.08;17.83;;;;;;;6.74;100.00;102165.75;5034617;28;20030;-70
2022/11/30 06:35:00;;;;;;;28.95;18.52;;;;;;;6.79;100.00;102173.31;5024083;28;20083;-70
2022/11/30 06:37:26;;;;;;;25.52;17.33;;;;;;;6.79;100.00;102167.94;5015438;28;20030;-69
2022/11/30 06:39:54;;;;;;;27.95;18.33;;;;;;;6.79;100.00;102173.31;5015618;28;20030;-70
2022/11/30 06:42:20;;;;;;;24.70;16.55;;;;;;;6.80;100.00;102169.63;5026281;28;20516;-72
2022/11/30 06:44:47;;;;;;;24.58;16.85;;;;;;;6.78;100.00;102174.34;5023080;28;20230;-71
2022/11/30 06:47:12;;;;;;;25.42;18.08;;;;;;;6.81;100.00;102175.84;5035277;28;20041;-70
2022/11/30 06:49:38;;;;;;;30.30;17.60;;;;;;;6.81;100.00;102168.63;5033421;28;20400;-71
2022/11/30 06:52:03;;;;;;;26.85;17.67;;;;;;;6.80;100.00;102169.63;5033076;28;20051;-71
2022/11/30 06:54:29;;;;;;;26.30;17.73;;;;;;;6.79;100.00;102175.19;5032137;28;20369;-71
2022/11/30 06:56:55;;;;;;;27.33;17.52;;;;;;;6.78;100.00;102181.56;5034781;28;20053;-71
2022/11/30 06:59:20;;;;;;;25.65;16.67;;;;;;;6.80;100.00;102184.94;5034948;28;20088;-71
2022/11/30 07:01:46;;;;;;;26.92;17.85;;;;;;;6.80;100.00;102183.09;5031903;28;20420;-70
2022/11/30 07:04:11;;;;;;;25.40;17.17;;;;;;;6.80;100.00;102190.34;5035104;28;20109;-71
2022/11/30 07:06:36;;;;;;;25.88;17.15;;;;;;;6.81;100.00;102192.00;5034624;28;20472;-71
2022/11/30 07:09:01;;;;;;;24.90;18.00;;;;;;;6.80;100.00;102193.03;5032546;28;20065;-71
2022/11/30 10:00:04;;;;;;;34.58;20.42;;;;;;;7.01;100.00;102297.50;5172111;27;20169;-71
2022/11/30 10:02:32;;;;;;;33.72;22.10;;;;;;;7.07;100.00;102304.91;5130993;27;20042;-71
2022/11/30 10:04:58;;;;;;;33.47;23.05;;;;;;;7.07;100.00;102297.66;5151419;27;20110;-75
2022/11/30 10:07:46;;;;;;;34.35;23.30;;;;;;;7.10;100.00;102300.00;5123937;28;20127;-73
2022/11/30 10:10:28;;;;;;;35.40;23.17;;;;;;;7.09;100.00;102301.00;5136146;27;20034;-71
2022/11/30 10:13:22;;;;;;;35.88;23.75;;;;;;;7.15;100.00;102294.13;5130137;27;20031;-71
2022/11/30 10:16:18;;;;;;;34.75;23.42;;;;;;;7.21;100.00;102295.31;5132224;27;20088;-71
2022/11/30 10:18:46;;;;;;;34.45;23.92;;;;;;;7.26;100.00;102295.66;5151033;27;20034;-71
2022/11/30 10:21:40;;;;;;;37.25;23.95;;;;;;;7.33;100.00;102296.66;5151637;27;20082;-71
2022/11/30 10:24:16;;;;;;;32.47;23.45;;;;;;;7.34;100.00;102292.97;5138931;27;20493;-71
2022/11/30 10:26:52;;;;;;;33.60;23.08;;;;;;;7.37;100.00;102291.81;5147880;27;20106;-71
2022/11/30 10:29:19;;;;;;;38.17;24.65;;;;;;;7.41;100.00;102290.44;5151195;27;20057;-71
2022/11/30 10:31:48;;;;;;;33.70;24.70;;;;;;;7.41;100.00;102290.44;5151075;27;20454;-71
2022/11/30 10:34:21;;;;;;;34.83;24.05;;;;;;;7.47;100.00;102287.06;5151041;27;20062;-71
2022/11/30 10:37:11;;;;;;;36.30;22.95;;;;;;;7.52;100.00;102282.03;5148757;27;20477;-71
2022/11/30 10:39:46;;;;;;;32.03;22.65;;;;;;;7.58;100.00;102284.03;5150954;27;20031;-71
2022/11/30 10:42:19;;;;;;;31.85;21.60;;;;;;;7.61;100.00;102278.31;5150570;27;20465;-71
2022/11/30 10:45:02;;;;;;;31.10;23.50;;;;;;;7.61;100.00;102278.31;5140979;27;20027;-71
2022/11/30 10:47:32;;;;;;;34.70;23.40;;;;;;;7.69;100.00;102273.94;5134764;27;20031;-71
2022/11/30 10:49:58;;;;;;;31.77;22.75;;;;;;;7.74;100.00;102277.78;5129820;28;20041;-73
2022/11/30 10:52:27;;;;;;;34.33;22.25;;;;;;;7.84;100.00;102277.59;5131776;27;20027;-73
2022/11/30 10:54:55;;;;;;;28.73;19.88;;;;;;;7.85;100.00;102279.28;5141809;27;20027;-73
2022/11/30 10:57:23;;;;;;;31.58;22.45;;;;;;;7.87;100.00;102276.44;5114939;28;20035;-73
2022/11/30 10:59:52;;;;;;;31.63;20.80;;;;;;;7.93;100.00;102273.88;5112631;28;20051;-73
2022/11/30 11:02:47;;;;;;;30.75;21.92;;;;;;;7.99;100.00;102267.78;5109138;28;20034;-73
2022/11/30 11:05:15;;;;;;;31.42;21.98;;;;;;;8.03;100.00;102271.00;5136571;27;20038;-77
2022/11/30 11:07:46;;;;;;;30.10;21.35;;;;;;;8.06;100.00;102269.78;5131919;27;20462;-73
2022/11/30 11:10:15;;;;;;;34.92;20.98;;;;;;;8.09;100.00;102270.31;5142176;27;20034;-75
2022/11/30 11:12:49;;;;;;;29.48;21.25;;;;;;;8.12;100.00;102269.97;5127059;27;20434;-75
2022/11/30 11:15:34;;;;;;;29.85;20.98;;;;;;;8.17;100.00;102272.13;5121493;27;20035;-74
2022/11/30 11:18:24;;;;;;;29.83;21.27;;;;;;;8.19;100.00;102272.78;5132696;27;20541;-74
2022/11/30 11:21:00;;;;;;;31.88;23.33;;;;;;;8.19;100.00;102264.69;5117683;27;20163;-75
2022/11/30 11:23:34;;;;;;;35.15;25.17;;;;;;;8.14;100.00;102267.09;5130783;27;20136;-73
2022/11/30 11:26:00;;;;;;;30.50;22.45;;;;;;;8.14;100.00;102267.09;5107331;27;20640;-76
2022/11/30 11:28:25;;;;;;;31.00;22.80;;;;;;;8.13;100.00;102266.22;5136336;27;20083;-77
2022/11/30 11:30:53;;;;;;;26.45;18.92;;;;;;;8.06;100.00;102265.25;5122683;27;20655;-75
2022/11/30 11:33:25;;;;;;;33.78;21.15;;;;;;;8.06;100.00;102270.66;5115590;28;20035;-74
2022/11/30 11:36:15;;;;;;;28.00;19.92;;;;;;;8.08;100.00;102259.69;5116605;27;20027;-74
2022/11/30 11:38:45;;;;;;;31.50;20.90;;;;;;;8.06;100.00;102267.09;5126247;27;20047;-73
2022/11/30 11:41:32;;;;;;;31.80;22.92;;;;;;;8.08;100.00;102262.38;5130060;27;20228;-73
2022/11/30 11:44:07;;;;;;;27.27;19.70;;;;;;;8.05;100.00;102266.25;5135618;27;20023;-75
2022/11/30 11:46:50;;;;;;;27.98;20.73;;;;;;;7.99;100.00;102258.88;5120672;27;20080;-74
2022/11/30 11:49:23;;;;;;;26.77;20.00;;;;;;;8.00;100.00;102260.53;5115463;28;20379;-73
2022/11/30 11:52:03;;;;;;;26.20;18.88;;;;;;;8.03;100.00;102256.66;5114918;28;20038;-74
2022/11/30 11:54:40;;;;;;;25.40;19.00;;;;;;;8.03;100.00;102267.44;5115300;28;20027;-74
2022/11/30 11:57:14;;;;;;;25.63;17.80;;;;;;;8.05;100.00;102268.97;5127708;27;20046;-73
2022/11/30 11:59:50;;;;;;;26.20;18.15;;;;;;;8.05;100.00;102270.81;5115222;28;20048;-74
2022/11/30 12:02:46;;;;;;;26.30;20.02;;;;;;;8.13;100.00;102270.78;5111209;28;20028;-73
2022/11/30 12:05:25;;;;;;;25.58;18.63;;;;;;;8.16;100.00;102271.25;5114461;27;20037;-73
2022/11/30 12:08:21;;;;;;;27.42;20.27;;;;;;;8.15;100.00;102260.66;5114343;28;20058;-74
2022/11/30 12:11:18;;;;;;;25.63;18.73;;;;;;;8.18;100.00;102268.41;5100305;27;20122;-74
2022/11/30 12:13:45;;;;;;;26.30;19.52;;;;;;;8.12;100.00;102267.25;5097786;27;20039;-74
2022/11/30 12:16:10;;;;;;;26.02;18.95;;;;;;;8.11;100.00;102262.88;5120856;27;20036;-73
2022/11/30 12:18:58;;;;;;;27.17;21.00;;;;;;;8.07;100.00;102263.41;5117552;27;20034;-74
2022/11/30 12:21:38;;;;;;;30.10;20.42;;;;;;;8.07;100.00;102264.22;5113073;27;20062;-77
2022/11/30 12:24:41;;;;;;;26.27;19.42;;;;;;;8.05;100.00;102268.13;5113454;27;20073;-73
2022/11/30 12:27:21;;;;;;;27.77;20.90;;;;;;;8.03;100.00;102267.44;5096008;28;20020;-73
2022/11/30 12:30:02;;;;;;;29.95;21.80;;;;;;;8.04;100.00;102261.03;5124641;27;20500;-73
2022/11/30 12:32:50;;;;;;;26.17;20.85;;;;;;;8.08;100.00;102265.09;5135052;27;20068;-73
2022/11/30 12:35:25;;;;;;;28.38;20.75;;;;;;;8.06;100.00;102269.78;5114254;28;20033;-73
2022/11/30 12:38:13;;;;;;;27.60;20.42;;;;;;;8.12;100.00;102267.25;5114017;28;20036;-74
2022/11/30 12:40:45;;;;;;;27.27;20.08;;;;;;;8.13;100.00;102273.47;5095870;28;20130;-74
2022/11/30 12:43:29;;;;;;;28.55;20.73;;;;;;;8.17;100.00;102274.81;5113287;27;20035;-73
2022/11/30 12:46:08;;;;;;;31.50;20.83;;;;;;;8.19;100.00;102270.09;5113582;27;20032;-77
2022/11/30 12:48:46;;;;;;;25.70;19.83;;;;;;;8.17;100.00;102272.13;5095714;28;20043;-73
2022/11/30 12:51:19;;;;;;;27.80;20.33;;;;;;;8.18;100.00;102273.78;5072076;27;20055;-73
2022/11/30 12:53:53;;;;;;;28.05;21.13;;;;;;;8.15;100.00;102280.38;5062774;28;20032;-73
2022/11/30 12:56:22;;;;;;;27.30;19.63;;;;;;;8.10;100.00;102277.34;5062597;28;20040;-73
2022/11/30 12:59:18;;;;;;;25.42;19.80;;;;;;;8.06;100.00;102276.03;5062960;28;20053;-73
2022/11/30 13:01:43;;;;;;;30.00;20.98;;;;;;;7.97;100.00;102283.31;5070159;28;20025;-73
2022/11/30 13:04:31;;;;;;;26.52;19.75;;;;;;;7.95;100.00;102282.63;5063711;28;20040;-73
2022/11/30 13:07:02;;;;;;;28.45;20.88;;;;;;;7.84;100.00;102283.00;5070841;28;20039;-74
2022/11/30 13:09:43;;;;;;;27.08;21.45;;;;;;;7.87;100.00;102285.34;5072655;28;20383;-74
2022/11/30 13:12:28;;;;;;;28.98;20.13;;;;;;;7.85;100.00;102284.69;5072491;28;20146;-74
2022/11/30 13:14:59;;;;;;;26.15;20.08;;;;;;;7.84;100.00;102282.16;5071836;28;20040;-74
2022/11/30 13:17:25;;;;;;;29.48;20.30;;;;;;;7.85;100.00;102284.69;5065121;28;20078;-75
2022/11/30 13:20:07;;;;;;;28.38;20.38;;;;;;;7.89;100.00;102285.19;5054525;28;20090;-74
2022/11/30 13:22:51;;;;;;;27.30;20.35;;;;;;;7.95;100.00;102285.31;5072903;28;20089;-74
2022/11/30 13:25:37;;;;;;;29.27;20.75;;;;;;;8.03;100.00;102295.25;5072243;28;20032;-73
2022/11/30 13:28:19;;;;;;;26.80;20.05;;;;;;;8.09;100.00;102296.41;5070726;28;20556;-74
2022/11/30 13:30:52;;;;;;;25.80;20.15;;;;;;;8.07;100.00;102291.19;5072310;28;20032;-74
2022/11/30 13:33:32;;;;;;;26.95;20.15;;;;;;;8.09;100.00;102286.47;5072664;28;20048;-74
2022/11/30 13:35:58;;;;;;;27.00;19.92;;;;;;;8.02;100.00;102282.78;5071602;28;20460;-74
2022/11/30 13:38:23;;;;;;;26.95;19.58;;;;;;;7.97;100.00;102287.84;5071321;28;20039;-74
2022/11/30 13:40:53;;;;;;;25.85;20.40;;;;;;;7.92;100.00;102291.06;5072467;28;20055;-74
2022/11/30 13:43:21;;;;;;;26.05;19.55;;;;;;;7.89;100.00;102280.63;5072766;28;20032;-74
2022/11/30 13:45:47;;;;;;;26.15;21.55;;;;;;;7.83;100.00;102284.00;5071464;28;20375;-74
2022/11/30 13:48:30;;;;;;;29.00;22.45;;;;;;;7.89;100.00;102283.31;5051453;28;20028;-74
2022/11/30 13:50:55;;;;;;;28.58;20.75;;;;;;;7.91;100.00;102281.31;5071061;28;20104;-74
2022/11/30 13:53:26;;;;;;;27.48;19.65;;;;;;;7.90;100.00;102286.88;5072127;28;20119;-74
2022/11/30 13:55:54;;;;;;;26.00;20.27;;;;;;;7.85;100.00;102291.91;5053496;28;20024;-74
2022/11/30 13:58:20;;;;;;;27.23;19.80;;;;;;;7.84;100.00;102290.25;5072093;28;20140;-74
2022/11/30 14:01:02;;;;;;;28.00;20.80;;;;;;;7.81;100.00;102291.44;5068881;28;20048;-74
2022/11/30 14:03:31;;;;;;;26.08;21.40;;;;;;;7.80;100.00;102297.81;5051138;28;20036;-74
2022/11/30 14:05:58;;;;;;;28.10;20.73;;;;;;;7.80;100.00;102306.75;5058958;28;20044;-74
2022/11/30 14:08:23;;;;;;;27.23;20.23;;;;;;;7.83;100.00;102297.47;5054418;28;20056;-74
2022/11/30 14:10:50;;;;;;;26.73;19.73;;;;;;;7.82;100.00;102295.81;5071277;28;20056;-74
2022/11/30 14:13:20;;;;;;;26.58;19.92;;;;;;;7.79;100.00;102301.53;5071815;28;20048;-74